createdAt,value
2022-08-12T00:02:54.855Z,22.85
2022-08-12T00:08:16.609Z,22.80
2022-08-12T00:13:37.035Z,22.79
2022-08-12T00:18:57.264Z,22.68
2022-08-12T00:24:19.882Z,22.65
2022-08-12T00:29:42.598Z,22.65
2022-08-12T00:35:08.956Z,22.55
2022-08-12T00:40:31.582Z,22.51
2022-08-12T00:45:53.594Z,22.47
2022-08-12T00:50:56.147Z,22.52
2022-08-12T00:56:00.682Z,22.40
2022-08-12T01:01:05.740Z,22.36
2022-08-12T01:06:27.174Z,22.33
2022-08-12T01:11:28.990Z,22.28
2022-08-12T01:16:30.793Z,22.18
2022-08-12T01:21:32.323Z,22.24
2022-08-12T01:26:35.031Z,22.22
2022-08-12T01:31:39.160Z,22.20
2022-08-12T01:36:45.959Z,22.17
2022-08-12T01:41:53.857Z,22.11
2022-08-12T01:47:05.722Z,22.07
2022-08-12T01:52:19.980Z,22.06
2022-08-12T01:57:59.618Z,21.89
2022-08-12T02:03:19.593Z,21.90
2022-08-12T02:08:56.842Z,21.75
2022-08-12T02:13:58.690Z,21.77
2022-08-12T02:19:22.503Z,21.63
2022-08-12T02:24:31.234Z,21.70
2022-08-12T02:29:33.607Z,21.61
2022-08-12T02:34:35.530Z,21.42
2022-08-12T02:39:40.766Z,21.41
2022-08-12T02:44:45.439Z,21.37
2022-08-12T02:49:55.265Z,21.42
2022-08-12T02:55:03.499Z,21.36
2022-08-12T03:00:07.818Z,21.33
2022-08-12T03:05:13.207Z,21.28
2022-08-12T03:10:26.028Z,21.22
2022-08-12T03:15:39.281Z,21.15
2022-08-12T03:20:50.903Z,21.13
2022-08-12T03:25:56.210Z,21.01
2022-08-12T03:31:09.262Z,21.09
2022-08-12T03:36:11.981Z,20.99
2022-08-12T03:41:35.505Z,20.91
2022-08-12T03:46:58.800Z,20.91
2022-08-12T03:52:23.053Z,20.75
2022-08-12T03:57:43.918Z,20.73
2022-08-12T04:03:01.783Z,20.70
2022-08-12T04:08:03.823Z,20.80
2022-08-12T04:13:19.530Z,20.62
2022-08-12T04:18:21.641Z,20.66
2022-08-12T04:23:24.441Z,20.57
2022-08-12T04:28:28.218Z,20.50
2022-08-12T04:33:30.068Z,20.47
2022-08-12T04:38:33.316Z,20.43
2022-08-12T04:44:01.114Z,20.42
2022-08-12T04:48:57.854Z,20.42
2022-08-12T04:54:03.045Z,20.41
2022-08-12T04:59:05.703Z,20.56
2022-08-12T05:04:09.301Z,20.61
2022-08-12T05:09:14.362Z,20.67
2022-08-12T05:14:16.757Z,20.61
2022-08-12T05:19:22.772Z,20.47
2022-08-12T05:24:24.551Z,20.62
2022-08-12T05:30:06.982Z,20.65
2022-08-12T05:34:51.775Z,20.67
2022-08-12T05:39:59.040Z,20.74
2022-08-12T05:45:02.284Z,20.78
2022-08-12T05:50:06.444Z,20.89
2022-08-12T05:55:08.220Z,20.93
2022-08-12T06:00:12.125Z,21.02
2022-08-12T06:05:14.027Z,21.01
2022-08-12T06:10:31.636Z,20.92
2022-08-12T06:15:37.906Z,20.97
2022-08-12T06:20:47.304Z,21.13
2022-08-12T06:25:48.954Z,20.93
2022-08-12T06:31:14.866Z,20.95
2022-08-12T06:36:20.944Z,20.98
2022-08-12T06:41:41.448Z,21.05
2022-08-12T06:47:03.060Z,21.28
2022-08-12T06:52:34.706Z,21.47
2022-08-12T06:58:08.248Z,21.47
2022-08-12T07:03:23.271Z,21.46
2022-08-12T07:08:29.001Z,21.57
2022-08-12T07:14:02.515Z,21.73
2022-08-12T07:19:11.945Z,21.90
2022-08-12T07:24:14.348Z,21.92
2022-08-12T07:29:16.441Z,21.99
2022-08-12T07:34:18.391Z,22.16
2022-08-12T07:39:20.311Z,22.29
2022-08-12T07:44:22.141Z,22.37
2022-08-12T07:49:24.760Z,22.60
2022-08-12T07:54:26.426Z,22.71
2022-08-12T07:59:28.436Z,22.82
2022-08-12T08:04:48.494Z,22.98
2022-08-12T08:09:50.474Z,23.20
2022-08-12T08:15:00.868Z,23.35
2022-08-12T08:20:04.433Z,23.53
2022-08-12T08:25:34.429Z,23.72
2022-08-12T08:30:30.456Z,23.91
2022-08-12T08:35:46.430Z,24.09
2022-08-12T08:41:07.456Z,24.27
2022-08-12T08:46:09.181Z,24.45
2022-08-12T08:51:10.747Z,24.51
2022-08-12T08:56:12.343Z,24.67
2022-08-12T09:01:21.656Z,24.80
2022-08-12T09:06:37.465Z,25.00
2022-08-12T09:12:10.584Z,25.16
2022-08-12T09:17:22.574Z,25.29
2022-08-12T09:22:28.443Z,25.46
2022-08-12T09:28:03.763Z,25.59
2022-08-12T09:33:04.947Z,25.86
2022-08-12T09:38:27.531Z,26.00
2022-08-12T09:43:53.796Z,26.18
2022-08-12T09:49:16.287Z,26.29
2022-08-12T09:54:33.900Z,26.33
2022-08-12T10:00:17.240Z,26.47
2022-08-12T10:05:01.741Z,26.65
2022-08-12T10:10:03.655Z,26.76
2022-08-12T10:15:06.934Z,27.05
2022-08-12T10:20:09.833Z,27.19
2022-08-12T10:26:18.358Z,27.31
2022-08-12T10:30:59.428Z,27.28
2022-08-12T10:36:02.026Z,27.70
2022-08-12T10:41:23.549Z,27.65
2022-08-12T10:46:49.289Z,27.93
2022-08-12T10:52:04.933Z,27.92
2022-08-12T10:57:18.361Z,28.20
2022-08-12T11:04:27.795Z,28.34
2022-08-12T11:08:33.731Z,28.42
2022-08-12T11:13:19.327Z,28.40
2022-08-12T11:18:40.986Z,28.35
2022-08-12T11:23:42.651Z,28.80
2022-08-12T11:28:44.283Z,28.87
2022-08-12T11:34:05.858Z,28.85
2022-08-12T11:44:46.703Z,29.09
2022-08-12T11:49:51.204Z,29.18
2022-08-12T11:54:54.286Z,29.49
2022-08-12T12:05:18.117Z,29.88
2022-08-12T12:10:20.615Z,29.80
2022-08-12T12:15:24.719Z,29.65
2022-08-12T12:20:30.390Z,29.73
2022-08-12T12:26:07.187Z,30.12
2022-08-12T12:30:57.120Z,30.04
2022-08-12T12:36:19.660Z,30.17
2022-08-12T12:41:22.719Z,30.09
2022-08-12T12:46:44.608Z,30.24
2022-08-12T12:51:58.113Z,30.19
2022-08-12T12:57:14.559Z,30.44
2022-08-12T13:02:31.774Z,30.47
2022-08-12T13:07:54.795Z,30.44
2022-08-12T13:14:07.309Z,30.55
2022-08-12T13:18:28.536Z,30.49
2022-08-12T13:23:37.109Z,30.59
2022-08-12T13:28:43.041Z,30.62
2022-08-12T13:34:33.583Z,30.81
2022-08-12T13:39:07.131Z,30.70
2022-08-12T13:44:10.492Z,30.66
2022-08-12T13:49:20.435Z,30.51
2022-08-12T13:54:35.249Z,30.74
2022-08-12T13:59:48.834Z,30.78
2022-08-12T14:04:57.139Z,30.74
2022-08-12T14:10:17.180Z,30.72
2022-08-12T14:15:19.547Z,30.73
2022-08-12T14:20:23.395Z,30.94
2022-08-12T14:25:28.539Z,30.90
2022-08-12T14:30:36.451Z,30.97
2022-08-12T14:35:44.944Z,31.00
2022-08-12T14:40:52.558Z,30.94
2022-08-12T14:45:56.506Z,30.80
2022-08-12T14:52:10.716Z,30.89
2022-08-12T15:01:45.292Z,30.96
2022-08-12T15:06:52.747Z,30.88
2022-08-12T15:12:03.224Z,30.78
2022-08-12T15:17:08.662Z,30.86
2022-08-12T15:22:37.028Z,30.75
2022-08-12T15:28:04.373Z,30.65
2022-08-12T15:32:56.130Z,30.55
2022-08-12T15:38:13.729Z,30.80
2022-08-12T15:43:51.458Z,30.89
2022-08-12T15:48:43.340Z,30.74
2022-08-12T15:54:30.799Z,30.57
2022-08-12T15:59:51.575Z,30.52
2022-08-12T16:04:51.484Z,30.44
2022-08-12T16:10:04.741Z,30.33
2022-08-12T16:15:11.026Z,30.36
2022-08-12T16:20:21.709Z,30.25
2022-08-12T16:26:00.158Z,30.15
2022-08-12T16:30:53.623Z,29.97
2022-08-12T16:35:55.606Z,29.89
2022-08-12T16:40:58.255Z,29.93
2022-08-12T16:46:31.253Z,29.82
2022-08-12T16:51:28.627Z,29.81
2022-08-12T16:56:37.187Z,29.77
2022-08-12T17:01:39.709Z,29.60
2022-08-12T17:06:44.074Z,29.51
2022-08-12T17:11:49.091Z,29.48
2022-08-12T17:16:54.754Z,29.40
2022-08-12T17:22:02.048Z,29.29
2022-08-12T17:27:16.359Z,29.27
2022-08-12T17:32:25.633Z,29.19
2022-08-12T17:37:30.123Z,29.10
2022-08-12T17:42:35.659Z,28.97
2022-08-12T17:47:37.854Z,28.84
2022-08-12T17:52:40.295Z,28.70
2022-08-12T17:57:48.245Z,28.66
2022-08-12T18:02:58.123Z,28.61
2022-08-12T18:08:01.325Z,28.47
2022-08-12T18:13:03.994Z,28.37
2022-08-12T18:18:05.976Z,28.27
2022-08-12T18:23:23.752Z,28.19
2022-08-12T18:28:29.127Z,28.01
2022-08-12T18:33:41.562Z,27.92
2022-08-12T18:38:52.739Z,27.88
2022-08-12T18:44:09.219Z,27.76
2022-08-12T18:49:17.815Z,27.63
2022-08-12T18:54:26.790Z,27.54
2022-08-12T19:00:02.130Z,27.33
2022-08-12T19:04:53.828Z,27.20
2022-08-12T19:10:00.085Z,27.15
2022-08-12T19:15:08.340Z,26.98
2022-08-12T19:20:13.654Z,26.95
2022-08-12T19:25:24.005Z,26.81
2022-08-12T19:31:04.019Z,26.66
2022-08-12T19:36:25.243Z,26.52
2022-08-12T19:41:42.496Z,26.46
2022-08-12T19:46:53.020Z,26.37
2022-08-12T19:51:55.515Z,26.31
2022-08-12T19:56:58.517Z,26.24
2022-08-12T20:02:04.904Z,26.20
2022-08-12T20:07:23.002Z,26.08
2022-08-12T20:12:32.431Z,25.94
2022-08-12T20:17:36.504Z,25.83
2022-08-12T20:22:55.761Z,25.78
2022-08-12T20:28:04.763Z,25.72
2022-08-12T20:33:16.669Z,25.60
2022-08-12T20:38:27.497Z,25.57
2022-08-12T20:43:32.104Z,25.51
2022-08-12T20:48:35.315Z,25.35
2022-08-12T20:53:58.015Z,25.34
2022-08-12T20:59:02.484Z,25.31
2022-08-12T21:04:24.127Z,25.28
2022-08-12T21:09:31.949Z,25.16
2022-08-12T21:14:53.860Z,25.18
2022-08-12T21:20:06.322Z,25.12
2022-08-12T21:25:18.891Z,25.13
2022-08-12T21:30:21.717Z,25.12
2022-08-12T21:35:29.068Z,25.06
2022-08-12T21:40:52.075Z,25.02
2022-08-12T21:46:00.896Z,24.98
2022-08-12T21:51:03.341Z,24.90
2022-08-12T21:56:34.044Z,24.88
2022-08-12T22:01:36.696Z,24.80
2022-08-12T22:06:53.743Z,24.73
2022-08-12T22:12:20.972Z,24.67
2022-08-12T22:17:49.378Z,24.65
2022-08-12T22:22:53.878Z,24.64
2022-08-12T22:28:16.693Z,24.51
2022-08-12T22:33:20.887Z,24.47
2022-08-12T22:38:26.559Z,24.40
2022-08-12T22:44:00.925Z,24.35
2022-08-12T22:49:03.625Z,24.33
2022-08-12T22:54:10.091Z,24.26
2022-08-12T22:59:51.015Z,24.25
2022-08-12T23:04:52.658Z,24.19
2022-08-12T23:09:56.832Z,24.14
2022-08-12T23:14:58.414Z,24.06
2022-08-12T23:20:01.670Z,24.05
2022-08-12T23:25:03.707Z,24.05
2022-08-12T23:30:18.831Z,24.02
2022-08-12T23:35:22.702Z,23.98
2022-08-12T23:40:25.774Z,23.98
2022-08-12T23:45:32.047Z,23.93
2022-08-12T23:50:38.373Z,23.90
2022-08-12T23:55:41.172Z,23.84
